Time;durP1;ratioP1;P1;durP2;ratioP2;P2;SDS_P1;SDS_P2;PMS_P1;PMS_P2;Temp;Humidity;BMP_temperature;BMP_pressure;BME280_temperature;BME280_humidity;BME280_pressure;Samples;Min_cycle;Max_cycle;Signal;HPM_P1;HPM_P2
2023/03/10 00:00:46;;;;;;;3.10;1.77;;;15.50;48.90;;;;;;4979088;28;20831;-45
2023/03/10 00:03:12;;;;;;;1.97;1.30;;;15.60;48.60;;;;;;4978616;28;20269;-45
2023/03/10 00:05:37;;;;;;;1.70;1.60;;;15.40;48.40;;;;;;4984768;28;20285;-44
2023/03/10 00:08:04;;;;;;;4.63;1.63;;;15.50;48.90;;;;;;4973078;28;20203;-44
2023/03/10 00:10:30;;;;;;;1.83;1.50;;;15.60;49.00;;;;;;4976804;28;20245;-45
2023/03/10 00:12:56;;;;;;;3.00;1.90;;;15.50;48.90;;;;;;4974949;28;20451;-45
2023/03/10 00:15:22;;;;;;;1.97;1.80;;;15.50;49.00;;;;;;4986141;28;20273;-46
2023/03/10 00:17:54;;;;;;;2.00;1.47;;;15.50;49.50;;;;;;4978636;28;20199;-47
2023/03/10 00:20:20;;;;;;;3.70;1.57;;;15.50;49.70;;;;;;4976240;28;20446;-49
2023/03/10 00:22:46;;;;;;;5.93;1.77;;;15.50;49.50;;;;;;4977673;28;20456;-46
2023/03/10 00:25:11;;;;;;;4.20;1.57;;;15.60;49.10;;;;;;4980162;28;20450;-45
2023/03/10 00:27:37;;;;;;;4.50;1.70;;;15.70;48.80;;;;;;4982987;28;20703;-46
2023/03/10 00:30:03;;;;;;;4.27;2.03;;;15.80;48.70;;;;;;4986938;28;20218;-45
2023/03/10 00:32:29;;;;;;;5.33;1.83;;;16.00;48.40;;;;;;4989279;28;20198;-45
2023/03/10 00:34:55;;;;;;;4.43;1.50;;;16.20;48.00;;;;;;4962937;28;20848;-45
2023/03/10 00:37:20;;;;;;;3.60;1.80;;;16.10;47.80;;;;;;4971168;28;20207;-45
2023/03/10 00:39:51;;;;;;;1.97;1.77;;;16.30;47.60;;;;;;4976795;28;20643;-45
2023/03/10 00:42:16;;;;;;;2.17;1.50;;;16.20;47.40;;;;;;4984362;28;20270;-46
2023/03/10 00:44:42;;;;;;;4.00;1.60;;;16.30;47.20;;;;;;4986528;28;20569;-45
2023/03/10 00:47:07;;;;;;;2.07;1.60;;;16.10;46.70;;;;;;4989300;28;20202;-45
2023/03/10 00:49:33;;;;;;;2.83;1.60;;;16.20;47.00;;;;;;4981714;28;20226;-45
2023/03/10 00:51:59;;;;;;;3.50;1.67;;;16.20;46.60;;;;;;4986003;28;20238;-45
2023/03/10 00:54:24;;;;;;;2.03;1.30;;;16.20;46.70;;;;;;4985942;28;20238;-47
2023/03/10 00:56:50;;;;;;;1.57;1.43;;;16.30;46.60;;;;;;4979428;28;20199;-45
2023/03/10 00:59:15;;;;;;;1.87;1.40;;;16.40;46.40;;;;;;4989292;28;20256;-45
2023/03/10 01:01:41;;;;;;;1.70;1.50;;;16.40;46.40;;;;;;4982775;28;20592;-45
2023/03/10 01:04:11;;;;;;;1.50;0.90;;;16.50;46.90;;;;;;4990472;28;20458;-45
2023/03/10 01:06:37;;;;;;;2.43;1.43;;;16.60;46.50;;;;;;4991456;28;20449;-45
2023/03/10 01:09:03;;;;;;;2.57;1.33;;;16.60;46.70;;;;;;4989430;28;20489;-44
2023/03/10 01:11:30;;;;;;;2.17;1.10;;;16.40;47.20;;;;;;4988393;28;20637;-45
2023/03/10 01:13:58;;;;;;;3.03;1.27;;;16.50;47.40;;;;;;4986762;28;20445;-45
2023/03/10 01:16:24;;;;;;;1.90;1.63;;;16.50;47.30;;;;;;4985127;28;20464;-44
2023/03/10 01:18:50;;;;;;;2.80;1.27;;;16.60;47.10;;;;;;4987045;28;20464;-44
2023/03/10 01:21:43;;;;;;;4.03;1.20;;;16.50;47.30;;;;;;4989473;28;20453;-45
2023/03/10 01:24:14;;;;;;;2.67;1.30;;;16.50;47.40;;;;;;4985434;28;20207;-46
2023/03/10 01:26:40;;;;;;;1.33;1.23;;;16.50;47.20;;;;;;4988995;28;20453;-45
2023/03/10 01:29:05;;;;;;;4.60;1.40;;;16.50;47.40;;;;;;4986863;28;20496;-46
2023/03/10 01:31:31;;;;;;;1.47;1.37;;;16.50;47.80;;;;;;4993053;28;20198;-45
2023/03/10 01:33:57;;;;;;;3.30;1.47;;;16.20;47.50;;;;;;4990081;28;20194;-45
2023/03/10 01:36:25;;;;;;;2.03;1.20;;;16.10;48.10;;;;;;4991374;28;20199;-45
2023/03/10 01:38:52;;;;;;;1.73;1.40;;;16.20;48.20;;;;;;4987343;28;20195;-45
2023/03/10 01:41:19;;;;;;;2.03;1.47;;;16.20;48.30;;;;;;4991050;28;20454;-45
2023/03/10 01:43:47;;;;;;;2.13;1.40;;;16.10;48.30;;;;;;4990418;28;20524;-45
2023/03/10 01:46:19;;;;;;;1.60;1.40;;;16.10;48.40;;;;;;4988606;28;20442;-44
2023/03/10 01:48:44;;;;;;;2.60;1.30;;;16.10;48.60;;;;;;4984723;28;20477;-45
2023/03/10 01:51:10;;;;;;;1.50;1.10;;;16.10;48.40;;;;;;4987299;28;20450;-46
2023/03/10 01:53:36;;;;;;;2.17;1.60;;;16.00;48.30;;;;;;4990877;28;20199;-44
2023/03/10 01:56:03;;;;;;;1.20;1.10;;;16.10;48.30;;;;;;4986194;28;20198;-44
2023/03/10 01:58:37;;;;;;;1.63;1.10;;;16.20;48.30;;;;;;4988022;28;20217;-44
2023/03/10 02:01:02;;;;;;;2.90;2.47;;;16.20;48.10;;;;;;4984729;28;20451;-45
2023/03/10 02:03:34;;;;;;;5.50;1.73;;;16.20;48.10;;;;;;4983787;28;20848;-44
2023/03/10 02:06:04;;;;;;;3.83;1.30;;;16.00;48.20;;;;;;4990886;28;20194;-44
2023/03/10 02:08:34;;;;;;;4.97;1.03;;;16.10;48.10;;;;;;4986195;28;21205;-45
2023/03/10 02:11:00;;;;;;;3.60;1.13;;;16.20;48.00;;;;;;4985338;28;20529;-45
2023/03/10 02:13:26;;;;;;;4.00;1.73;;;16.20;47.80;;;;;;4971423;28;20508;-44
2023/03/10 02:15:52;;;;;;;3.03;1.20;;;16.00;47.90;;;;;;4990711;28;20198;-44
2023/03/10 02:18:20;;;;;;;1.50;1.23;;;15.80;48.50;;;;;;4988596;28;20195;-44
2023/03/10 02:20:55;;;;;;;1.37;1.20;;;15.70;48.60;;;;;;4987931;28;20206;-45
2023/03/10 02:23:54;;;;;;;3.20;1.40;;;15.40;49.20;;;;;;4992269;28;20482;-43
2023/03/10 02:26:43;;;;;;;1.63;1.00;;;15.20;49.70;;;;;;4980041;28;20927;-44
2023/03/10 02:29:30;;;;;;;3.13;1.20;;;15.30;49.90;;;;;;4979657;28;20536;-43
2023/03/10 02:31:57;;;;;;;2.33;1.50;;;15.10;50.50;;;;;;4992461;28;20605;-44
2023/03/10 02:34:24;;;;;;;6.13;1.47;;;14.60;51.70;;;;;;4981838;28;20431;-43
2023/03/10 02:36:49;;;;;;;2.00;1.43;;;14.70;52.30;;;;;;4972711;28;20427;-44
2023/03/10 02:39:15;;;;;;;3.33;1.47;;;14.70;52.80;;;;;;4977225;28;20429;-45
2023/03/10 02:41:42;;;;;;;1.83;0.93;;;14.50;53.60;;;;;;4987028;28;20279;-44
2023/03/10 02:44:12;;;;;;;1.03;0.80;;;14.20;54.30;;;;;;4982549;28;20205;-43
2023/03/10 02:46:38;;;;;;;2.90;1.13;;;14.30;54.90;;;;;;4975694;28;20422;-43
2023/03/10 02:49:05;;;;;;;1.63;1.37;;;14.40;54.70;;;;;;4982833;28;20479;-44
2023/03/10 02:51:33;;;;;;;2.10;0.90;;;14.30;54.70;;;;;;4983362;28;20666;-44
2023/03/10 02:54:00;;;;;;;2.13;1.50;;;14.40;54.70;;;;;;4985350;28;20441;-44
2023/03/10 02:56:26;;;;;;;1.33;1.00;;;14.40;54.80;;;;;;4990401;28;20456;-44
2023/03/10 02:58:52;;;;;;;1.63;1.37;;;14.40;54.80;;;;;;4988005;28;20446;-45
2023/03/10 03:01:18;;;;;;;2.03;1.03;;;14.30;55.20;;;;;;4988065;28;20438;-44
2023/03/10 03:03:44;;;;;;;2.17;1.00;;;14.40;55.30;;;;;;4987580;28;20240;-44
2023/03/10 03:06:11;;;;;;;1.30;1.00;;;14.50;55.30;;;;;;4989191;28;20446;-43
2023/03/10 03:08:36;;;;;;;3.90;1.10;;;14.40;55.90;;;;;;4978006;28;20203;-44
2023/03/10 03:11:02;;;;;;;1.93;1.20;;;14.30;56.20;;;;;;4984261;28;20811;-43
2023/03/10 03:13:28;;;;;;;2.30;1.00;;;14.40;56.30;;;;;;4985051;28;20206;-44
2023/03/10 03:15:54;;;;;;;3.50;1.00;;;14.40;56.60;;;;;;4988974;28;20914;-44
2023/03/10 03:18:19;;;;;;;1.83;1.00;;;14.50;56.70;;;;;;4978174;28;20194;-43
2023/03/10 03:20:50;;;;;;;2.10;1.00;;;14.40;56.90;;;;;;4985562;28;20217;-44
2023/03/10 03:23:16;;;;;;;1.30;0.87;;;14.10;57.60;;;;;;4984932;28;20613;-44
2023/03/10 03:25:42;;;;;;;0.70;0.70;;;14.20;58.00;;;;;;4981745;28;20447;-44
2023/03/10 03:28:10;;;;;;;1.10;0.73;;;14.30;57.90;;;;;;4982529;28;20194;-44
2023/03/10 03:30:36;;;;;;;4.50;1.30;;;14.50;57.90;;;;;;4988171;28;20866;-44
2023/03/10 03:33:03;;;;;;;1.33;0.70;;;14.40;57.80;;;;;;4988830;28;20442;-45
2023/03/10 03:35:32;;;;;;;1.57;1.00;;;14.20;58.00;;;;;;4983693;28;20199;-43
2023/03/10 03:37:58;;;;;;;1.20;1.00;;;14.20;58.60;;;;;;4988505;28;20449;-44
2023/03/10 03:40:25;;;;;;;1.27;0.70;;;14.10;58.70;;;;;;4985677;28;20441;-44
2023/03/10 03:42:52;;;;;;;4.00;1.17;;;14.00;59.30;;;;;;4985030;28;20195;-43
2023/03/10 03:45:21;;;;;;;0.90;0.70;;;14.10;59.30;;;;;;4986473;28;20446;-44
2023/03/10 03:47:47;;;;;;;1.43;0.77;;;14.10;59.30;;;;;;4982417;28;20444;-43
2023/03/10 03:50:14;;;;;;;2.97;1.27;;;14.10;60.20;;;;;;4979501;28;20549;-43
2023/03/10 03:52:41;;;;;;;0.70;0.70;;;14.20;59.40;;;;;;4978773;28;20439;-45
2023/03/10 03:55:08;;;;;;;1.73;0.60;;;14.20;59.30;;;;;;4985763;28;20450;-44
2023/03/10 03:57:34;;;;;;;0.87;0.73;;;14.40;59.00;;;;;;4984730;28;20453;-44
2023/03/10 04:00:00;;;;;;;0.70;0.70;;;14.50;58.60;;;;;;4969804;28;20553;-44
2023/03/10 04:02:25;;;;;;;1.00;0.70;;;14.50;58.70;;;;;;4988548;28;20529;-44
2023/03/10 04:04:54;;;;;;;1.67;0.63;;;14.30;59.00;;;;;;4986816;28;20194;-44
2023/03/10 04:07:20;;;;;;;1.37;0.83;;;14.40;59.00;;;;;;4986506;28;20234;-44
2023/03/10 04:09:45;;;;;;;0.60;0.60;;;14.50;58.60;;;;;;4981138;28;20527;-44
2023/03/10 04:12:11;;;;;;;0.60;0.60;;;14.50;58.30;;;;;;4977766;28;20210;-44
2023/03/10 04:14:37;;;;;;;2.13;0.70;;;14.50;58.40;;;;;;4981879;28;20257;-44
2023/03/10 04:17:03;;;;;;;0.70;0.70;;;14.50;58.50;;;;;;4985730;28;20215;-44
2023/03/10 04:19:29;;;;;;;1.20;0.60;;;14.40;58.70;;;;;;4978953;28;20206;-45
2023/03/10 04:21:55;;;;;;;0.90;0.60;;;14.50;58.80;;;;;;4987644;28;20937;-44
2023/03/10 04:24:20;;;;;;;1.00;0.90;;;14.60;58.90;;;;;;4990607;28;20433;-45
2023/03/10 04:26:46;;;;;;;0.80;0.60;;;14.50;58.90;;;;;;4987611;28;20667;-44
2023/03/10 04:29:12;;;;;;;2.10;0.80;;;14.60;58.70;;;;;;4982595;28;20230;-44
2023/03/10 04:31:38;;;;;;;0.80;0.80;;;14.40;59.20;;;;;;4991158;28;20199;-44
2023/03/10 04:34:03;;;;;;;1.60;1.07;;;14.30;59.50;;;;;;4975579;28;20652;-44
2023/03/10 04:36:29;;;;;;;1.77;1.10;;;14.30;59.50;;;;;;4981496;28;20273;-44
2023/03/10 04:38:55;;;;;;;1.10;1.00;;;14.30;59.50;;;;;;4980065;28;20195;-44
2023/03/10 04:41:21;;;;;;;1.53;0.90;;;14.30;59.60;;;;;;4987955;28;20205;-45
2023/03/10 04:43:46;;;;;;;1.47;0.73;;;14.40;59.60;;;;;;4994576;28;20421;-45
2023/03/10 04:46:12;;;;;;;0.80;0.77;;;14.40;59.50;;;;;;4978990;28;20195;-44
2023/03/10 04:48:38;;;;;;;0.60;0.60;;;14.30;59.60;;;;;;4979050;28;20248;-44
2023/03/10 04:51:07;;;;;;;0.90;0.67;;;14.40;59.40;;;;;;4986921;28;20821;-44
2023/03/10 04:53:33;;;;;;;1.10;0.70;;;14.30;59.60;;;;;;4987398;28;20444;-45
2023/03/10 04:56:00;;;;;;;1.03;0.60;;;14.30;59.70;;;;;;4991318;28;20787;-45
2023/03/10 04:58:25;;;;;;;0.70;0.60;;;14.40;59.40;;;;;;4986574;28;20458;-45
2023/03/10 05:00:52;;;;;;;0.77;0.77;;;14.50;59.20;;;;;;4985289;28;20453;-44
2023/03/10 05:03:18;;;;;;;1.80;0.80;;;14.50;59.10;;;;;;4986214;28;20323;-46
2023/03/10 05:05:43;;;;;;;2.00;0.80;;;14.50;59.10;;;;;;4986601;28;20573;-48
2023/03/10 05:08:09;;;;;;;1.07;0.80;;;14.70;58.90;;;;;;4971092;28;20194;-45
2023/03/10 05:10:38;;;;;;;1.60;0.93;;;14.80;58.70;;;;;;4975602;28;20219;-46
2023/03/10 05:13:04;;;;;;;1.77;0.90;;;14.80;58.60;;;;;;4984533;28;20443;-48
2023/03/10 05:15:33;;;;;;;0.97;0.87;;;14.80;58.60;;;;;;4986108;28;20604;-45
2023/03/10 05:17:59;;;;;;;1.90;0.93;;;14.90;58.20;;;;;;4981434;28;20583;-44
2023/03/10 05:20:24;;;;;;;0.80;0.80;;;15.00;57.80;;;;;;4984039;28;20445;-47
2023/03/10 05:22:50;;;;;;;0.70;0.70;;;15.10;57.60;;;;;;4986271;28;20202;-48
2023/03/10 05:25:16;;;;;;;0.70;0.70;;;14.90;57.60;;;;;;4993810;28;20203;-46
2023/03/10 05:27:42;;;;;;;0.80;0.70;;;14.80;57.90;;;;;;4993211;28;20229;-48
2023/03/10 05:30:14;;;;;;;0.80;0.80;;;14.90;57.90;;;;;;4990366;28;20486;-45
2023/03/10 05:32:40;;;;;;;0.90;0.77;;;14.90;57.70;;;;;;4990986;28;20206;-46
2023/03/10 05:35:06;;;;;;;0.87;0.87;;;14.90;57.40;;;;;;4991202;28;20453;-46
2023/03/10 05:37:39;;;;;;;0.80;0.80;;;14.90;57.50;;;;;;4984065;28;20434;-47
2023/03/10 05:40:12;;;;;;;1.27;0.90;;;14.90;57.50;;;;;;4979855;28;20206;-45
2023/03/10 05:42:38;;;;;;;1.03;0.77;;;14.70;57.70;;;;;;4966804;28;21068;-46
2023/03/10 05:45:05;;;;;;;2.53;0.80;;;14.60;57.90;;;;;;4988580;28;20462;-44
2023/03/10 05:47:32;;;;;;;1.20;0.80;;;14.60;57.80;;;;;;4989265;28;20214;-48
2023/03/10 05:49:58;;;;;;;1.07;0.97;;;14.60;57.70;;;;;;4986100;28;21048;-47
2023/03/10 05:52:24;;;;;;;0.93;0.70;;;14.70;57.60;;;;;;4990270;28;20472;-44
2023/03/10 05:54:49;;;;;;;1.17;0.80;;;14.60;57.60;;;;;;4984416;28;20438;-45
2023/03/10 05:57:15;;;;;;;1.80;1.03;;;14.50;58.10;;;;;;4987503;28;20646;-45
2023/03/10 05:59:41;;;;;;;2.20;1.03;;;14.50;58.00;;;;;;4978562;28;20950;-47
2023/03/10 06:02:07;;;;;;;2.60;1.27;;;14.40;58.10;;;;;;4989777;28;20222;-45
2023/03/10 06:04:32;;;;;;;1.17;0.90;;;14.40;58.10;;;;;;4970515;28;20237;-45
2023/03/10 06:07:01;;;;;;;1.10;0.93;;;14.50;58.20;;;;;;4982640;28;20454;-44
2023/03/10 06:09:29;;;;;;;1.03;0.90;;;14.60;58.00;;;;;;4988955;28;20230;-45
2023/03/10 06:11:55;;;;;;;3.87;1.93;;;14.60;57.90;;;;;;4990077;28;20430;-47
2023/03/10 06:14:21;;;;;;;1.07;0.80;;;14.60;58.30;;;;;;4975147;28;20810;-45
2023/03/10 06:16:50;;;;;;;2.50;1.00;;;14.60;58.10;;;;;;4978192;28;20442;-47
2023/03/10 06:19:20;;;;;;;2.27;0.90;;;14.60;58.20;;;;;;4973147;28;20222;-47
2023/03/10 06:21:46;;;;;;;1.83;0.90;;;14.70;58.40;;;;;;4989106;28;20422;-48
2023/03/10 06:24:12;;;;;;;4.70;1.10;;;14.60;58.60;;;;;;4986412;28;20437;-46
2023/03/10 06:26:38;;;;;;;2.00;0.97;;;14.60;59.10;;;;;;4973140;28;20780;-43
2023/03/10 06:29:04;;;;;;;2.53;1.20;;;14.40;60.20;;;;;;4984789;28;20219;-43
2023/03/10 06:31:30;;;;;;;1.93;1.00;;;14.40;61.30;;;;;;4982509;28;20520;-45
2023/03/10 06:33:56;;;;;;;2.70;1.10;;;14.50;61.40;;;;;;4973219;28;20458;-43
2023/03/10 06:36:24;;;;;;;3.13;1.00;;;14.40;62.40;;;;;;4983331;28;20814;-44
2023/03/10 06:38:50;;;;;;;2.93;1.20;;;14.30;63.40;;;;;;4984377;28;20497;-46
2023/03/10 06:41:16;;;;;;;1.87;1.00;;;13.90;64.50;;;;;;4991557;28;20449;-46
2023/03/10 06:43:41;;;;;;;1.43;0.63;;;13.70;64.10;;;;;;4988478;28;20266;-47
2023/03/10 06:46:09;;;;;;;1.03;0.80;;;13.40;62.70;;;;;;4987300;28;20860;-45
2023/03/10 06:48:36;;;;;;;1.23;0.70;;;13.30;65.30;;;;;;4984671;28;20198;-48
2023/03/10 06:51:06;;;;;;;0.70;0.70;;;13.40;66.60;;;;;;4980687;28;20459;-45
2023/03/10 06:53:32;;;;;;;0.70;0.70;;;13.60;66.90;;;;;;4976054;28;20499;-45
2023/03/10 06:56:01;;;;;;;2.83;0.70;;;13.60;66.00;;;;;;4983728;28;20954;-46
2023/03/10 06:58:27;;;;;;;1.00;0.80;;;13.60;66.20;;;;;;4989369;28;20194;-47
2023/03/10 07:00:53;;;;;;;1.90;0.90;;;13.60;66.70;;;;;;4983363;28;20437;-48
2023/03/10 07:03:19;;;;;;;2.50;0.63;;;13.50;66.80;;;;;;4984859;28;20560;-46
2023/03/10 07:05:45;;;;;;;1.27;0.80;;;13.60;65.90;;;;;;4986738;28;20223;-45
2023/03/10 07:08:10;;;;;;;1.00;0.63;;;13.60;66.90;;;;;;4981408;28;20442;-48
2023/03/10 07:10:36;;;;;;;1.17;0.70;;;13.70;66.10;;;;;;4988816;28;20333;-46
2023/03/10 07:13:01;;;;;;;0.70;0.70;;;13.70;64.60;;;;;;4987419;28;20249;-44
2023/03/10 07:15:28;;;;;;;0.83;0.70;;;13.70;65.00;;;;;;4988914;28;20195;-44
2023/03/10 07:17:55;;;;;;;0.90;0.63;;;13.70;64.30;;;;;;4982422;28;20202;-47
2023/03/10 07:20:22;;;;;;;0.97;0.80;;;13.80;64.10;;;;;;4982266;28;20462;-45
2023/03/10 07:22:47;;;;;;;2.50;0.60;;;13.90;63.90;;;;;;4981134;28;20473;-47
2023/03/10 07:25:13;;;;;;;0.90;0.60;;;14.00;63.60;;;;;;4980443;28;20445;-46
2023/03/10 07:27:39;;;;;;;0.80;0.70;;;14.10;63.70;;;;;;4981161;28;20205;-45
2023/03/10 07:30:05;;;;;;;3.00;0.87;;;14.30;63.40;;;;;;4989379;28;20222;-44
2023/03/10 07:32:31;;;;;;;2.10;0.97;;;14.60;62.80;;;;;;4991373;28;20202;-45
2023/03/10 07:34:57;;;;;;;0.83;0.83;;;14.60;61.90;;;;;;4989722;28;20776;-45
2023/03/10 07:37:22;;;;;;;2.10;0.80;;;14.80;61.80;;;;;;4989413;28;20226;-45
2023/03/10 07:39:48;;;;;;;1.17;0.87;;;14.90;61.40;;;;;;4989505;28;20194;-47
2023/03/10 07:42:13;;;;;;;0.90;0.90;;;15.00;61.20;;;;;;4983411;28;20490;-48
2023/03/10 07:44:39;;;;;;;1.20;0.80;;;15.00;60.70;;;;;;4971565;28;20324;-47
2023/03/10 07:47:05;;;;;;;1.03;0.83;;;15.10;60.40;;;;;;4988901;28;20194;-44
2023/03/10 07:49:30;;;;;;;1.80;0.73;;;15.20;60.50;;;;;;4989374;28;20230;-45
2023/03/10 07:51:56;;;;;;;2.10;0.80;;;15.30;60.60;;;;;;4978854;28;20569;-47
2023/03/10 07:54:21;;;;;;;3.33;2.23;;;15.30;60.10;;;;;;4982933;28;20214;-44
2023/03/10 07:56:47;;;;;;;1.00;0.90;;;15.30;60.10;;;;;;4985487;28;20197;-45
2023/03/10 07:59:13;;;;;;;2.13;0.83;;;14.90;60.00;;;;;;4987810;28;20198;-45
2023/03/10 08:01:38;;;;;;;1.53;0.80;;;14.80;60.60;;;;;;4978198;28;20565;-47
2023/03/10 08:04:05;;;;;;;3.50;0.90;;;14.90;60.70;;;;;;4982886;28;20239;-47
2023/03/10 08:06:32;;;;;;;1.77;1.00;;;15.00;60.80;;;;;;4987280;28;20621;-44
2023/03/10 08:08:58;;;;;;;1.23;0.97;;;14.60;60.90;;;;;;4971694;28;20885;-45
2023/03/10 08:11:23;;;;;;;1.50;1.00;;;14.50;61.80;;;;;;4979381;28;20445;-44
2023/03/10 08:13:49;;;;;;;2.83;1.10;;;14.60;62.30;;;;;;4989509;28;20206;-44
2023/03/10 08:16:17;;;;;;;1.77;1.20;;;14.50;62.80;;;;;;4981205;28;20199;-45
2023/03/10 08:18:43;;;;;;;2.50;0.87;;;14.30;63.30;;;;;;4989819;28;20201;-45
2023/03/10 08:21:09;;;;;;;0.97;0.87;;;14.00;64.80;;;;;;4988834;28;20453;-46
2023/03/10 08:23:36;;;;;;;0.80;0.80;;;13.80;67.20;;;;;;4976882;28;20434;-47
2023/03/10 08:26:05;;;;;;;1.63;1.07;;;13.70;66.80;;;;;;4976515;28;20201;-45
2023/03/10 08:28:33;;;;;;;2.83;1.00;;;13.50;67.80;;;;;;4963589;28;20910;-45
2023/03/10 08:31:05;;;;;;;3.47;1.50;;;13.40;69.30;;;;;;4983813;28;20457;-45
2023/03/10 08:33:31;;;;;;;1.80;1.20;;;13.30;68.20;;;;;;4981006;28;20560;-46
2023/03/10 08:36:05;;;;;;;1.10;1.00;;;12.90;68.10;;;;;;4980118;28;20507;-46
2023/03/10 08:38:31;;;;;;;2.10;1.27;;;12.80;69.10;;;;;;4986038;28;20453;-45
2023/03/10 08:40:57;;;;;;;0.97;0.80;;;12.80;70.60;;;;;;4987749;28;20449;-45
2023/03/10 08:43:23;;;;;;;1.10;1.00;;;12.70;69.90;;;;;;4986701;28;20195;-45
2023/03/10 08:45:48;;;;;;;2.63;1.10;;;13.00;69.40;;;;;;4967844;28;20525;-45
2023/03/10 08:48:14;;;;;;;1.67;1.17;;;13.00;68.90;;;;;;4982411;28;20196;-45
2023/03/10 08:50:40;;;;;;;1.90;0.60;;;13.40;69.10;;;;;;4982994;28;20222;-47
2023/03/10 08:53:05;;;;;;;3.60;1.43;;;13.50;68.50;;;;;;4986041;28;20223;-48
2023/03/10 08:55:31;;;;;;;1.90;1.30;;;13.60;68.40;;;;;;4977949;28;20202;-45
2023/03/10 08:57:57;;;;;;;1.33;1.23;;;13.70;68.10;;;;;;4979524;28;20192;-44
2023/03/10 09:00:23;;;;;;;2.53;1.63;;;13.80;67.70;;;;;;4978767;28;20191;-46
2023/03/10 09:02:48;;;;;;;3.27;1.13;;;13.80;67.10;;;;;;4981362;28;20231;-47
2023/03/10 09:05:14;;;;;;;1.47;0.80;;;13.90;67.80;;;;;;4979508;28;20449;-46
2023/03/10 09:07:40;;;;;;;3.73;1.00;;;13.90;67.40;;;;;;4978356;28;20215;-45
2023/03/10 09:10:05;;;;;;;0.80;0.60;;;14.00;66.50;;;;;;4988478;28;20372;-45
2023/03/10 09:12:31;;;;;;;1.70;1.03;;;13.90;66.20;;;;;;4984825;28;20195;-46
2023/03/10 09:14:57;;;;;;;1.30;0.90;;;13.90;66.50;;;;;;4979651;28;20544;-44
2023/03/10 09:17:23;;;;;;;3.97;1.30;;;13.90;67.70;;;;;;4981595;28;20231;-45
2023/03/10 09:19:48;;;;;;;1.20;1.10;;;14.20;69.00;;;;;;4988368;28;20214;-45
2023/03/10 09:22:14;;;;;;;3.53;1.10;;;14.30;68.10;;;;;;4988392;28;20964;-45
2023/03/10 09:24:40;;;;;;;1.43;1.00;;;14.60;66.90;;;;;;4988498;28;20186;-46
2023/03/10 09:27:05;;;;;;;0.80;0.70;;;14.70;66.60;;;;;;4980263;28;20257;-45
2023/03/10 09:29:33;;;;;;;1.67;0.80;;;15.00;66.20;;;;;;4981769;28;20227;-47
2023/03/10 09:31:58;;;;;;;1.00;0.90;;;15.20;63.20;;;;;;4987120;28;20191;-45
2023/03/10 09:34:26;;;;;;;1.63;0.87;;;15.40;62.10;;;;;;4986425;28;20465;-45
2023/03/10 09:36:52;;;;;;;3.90;0.87;;;15.50;62.10;;;;;;4988035;28;20214;-46
2023/03/10 09:39:21;;;;;;;0.77;0.70;;;15.60;61.30;;;;;;4981691;28;20441;-47
2023/03/10 09:41:55;;;;;;;1.30;0.80;;;15.70;60.80;;;;;;4990372;28;20198;-47
2023/03/10 09:44:29;;;;;;;1.40;1.23;;;15.70;61.20;;;;;;4989461;28;20535;-44
2023/03/10 09:47:16;;;;;;;1.30;0.90;;;15.60;62.20;;;;;;4976298;28;20469;-44
2023/03/10 09:50:04;;;;;;;0.80;0.80;;;15.70;61.60;;;;;;4986871;28;20489;-45
2023/03/10 09:55:25;;;;;;;1.37;0.90;;;15.90;62.30;;;;;;5413832;23;20517;-49
2023/03/10 09:57:53;;;;;;;2.73;1.70;;;15.70;61.10;;;;;;4967035;28;20438;-47
2023/03/10 10:00:23;;;;;;;1.63;1.10;;;15.30;59.70;;;;;;4963351;28;20493;-53
2023/03/10 10:03:02;;;;;;;2.67;1.03;;;15.20;61.20;;;;;;4973191;28;20457;-50
2023/03/10 10:05:32;;;;;;;0.90;0.90;;;15.00;61.00;;;;;;4963438;28;20616;-49
2023/03/10 10:08:02;;;;;;;2.17;0.98;;;14.70;60.80;;;;;;4963202;28;20906;-49
2023/03/10 10:10:31;;;;;;;2.63;0.90;;;14.30;60.70;;;;;;4966130;28;20228;-51
2023/03/10 10:13:12;;;;;;;3.50;1.27;;;14.00;60.60;;;;;;4961087;28;21098;-47
2023/03/10 10:15:40;;;;;;;2.10;0.80;;;14.20;62.60;;;;;;4965349;28;20570;-50
2023/03/10 10:18:48;;;;;;;1.37;0.90;;;14.20;61.80;;;;;;4965960;28;20473;-50
2023/03/10 10:21:32;;;;;;;5.67;1.03;;;14.20;61.10;;;;;;4962456;28;20491;-49
2023/03/10 10:23:58;;;;;;;1.63;1.00;;;14.30;61.70;;;;;;4970757;28;20431;-48
2023/03/10 10:26:26;;;;;;;2.87;0.80;;;14.20;60.20;;;;;;4972781;28;20439;-46
2023/03/10 10:28:54;;;;;;;1.93;0.90;;;14.10;60.40;;;;;;4967976;28;20251;-47
2023/03/10 10:31:23;;;;;;;0.83;0.80;;;13.90;61.10;;;;;;4953763;28;20431;-50
2023/03/10 10:34:07;;;;;;;3.60;1.10;;;14.00;61.80;;;;;;4953571;28;20432;-47
2023/03/10 10:36:37;;;;;;;2.10;1.10;;;14.10;62.30;;;;;;4960423;28;20454;-46
2023/03/10 10:39:19;;;;;;;1.13;1.00;;;13.70;60.80;;;;;;4971847;28;20451;-50
2023/03/10 10:41:45;;;;;;;2.30;0.90;;;13.90;63.00;;;;;;4957083;28;20439;-51
2023/03/10 10:44:16;;;;;;;1.37;0.70;;;13.90;61.80;;;;;;4953409;28;20926;-47
2023/03/10 10:46:54;;;;;;;1.23;0.70;;;13.90;62.00;;;;;;4953484;28;20736;-47
2023/03/10 10:49:25;;;;;;;3.60;1.20;;;14.00;61.80;;;;;;4958653;28;20581;-46
2023/03/10 10:52:04;;;;;;;2.13;1.10;;;14.00;61.90;;;;;;4971383;28;20984;-46
2023/03/10 10:54:39;;;;;;;3.30;1.13;;;14.00;62.10;;;;;;4972142;28;20473;-49
2023/03/10 10:57:19;;;;;;;2.13;1.00;;;14.20;62.10;;;;;;4960128;28;20446;-51
2023/03/10 10:59:45;;;;;;;1.77;1.10;;;14.10;62.90;;;;;;4960106;28;20473;-47
2023/03/10 11:02:32;;;;;;;1.57;0.90;;;13.90;61.60;;;;;;4972506;28;20419;-48
2023/03/10 11:05:12;;;;;;;1.07;0.90;;;14.10;62.70;;;;;;4961729;28;20793;-48
2023/03/10 11:07:38;;;;;;;1.83;0.90;;;13.90;61.60;;;;;;4963965;28;20442;-47
2023/03/10 11:10:15;;;;;;;4.23;1.03;;;13.90;61.80;;;;;;4961849;28;20494;-46
2023/03/10 11:13:04;;;;;;;2.20;1.20;;;13.90;62.50;;;;;;4967002;28;20207;-47
2023/03/10 11:15:47;;;;;;;1.80;1.20;;;14.00;62.40;;;;;;4965994;28;20983;-46
2023/03/10 11:18:40;;;;;;;1.93;1.10;;;14.00;63.10;;;;;;4951410;28;20990;-48
2023/03/10 11:21:13;;;;;;;1.47;1.10;;;13.80;61.30;;;;;;4952972;28;20449;-46
2023/03/10 11:24:00;;;;;;;2.67;1.13;;;13.60;63.00;;;;;;4952662;28;20513;-49
2023/03/10 11:26:51;;;;;;;2.07;0.90;;;13.80;64.10;;;;;;4964052;28;20530;-46
2023/03/10 11:29:16;;;;;;;1.60;0.97;;;13.90;62.40;;;;;;4962609;28;20471;-46
2023/03/10 11:32:00;;;;;;;1.73;1.23;;;14.00;62.00;;;;;;4967401;28;20435;-47
2023/03/10 11:34:34;;;;;;;1.00;0.90;;;13.70;61.90;;;;;;4952580;28;20226;-46
2023/03/10 11:37:23;;;;;;;3.60;1.07;;;13.70;63.90;;;;;;4958806;28;20830;-46
2023/03/10 11:40:06;;;;;;;4.20;0.90;;;13.50;62.50;;;;;;4970414;28;21037;-47
2023/03/10 11:42:54;;;;;;;3.13;0.90;;;13.30;63.00;;;;;;4971389;28;20453;-46
2023/03/10 11:45:36;;;;;;;1.67;1.10;;;13.60;63.80;;;;;;4970056;28;20518;-49
2023/03/10 11:48:18;;;;;;;1.80;0.80;;;13.60;61.90;;;;;;4966751;28;20458;-49
2023/03/10 11:50:50;;;;;;;4.33;1.07;;;13.40;61.30;;;;;;4971932;28;20842;-50
2023/03/10 11:53:24;;;;;;;3.90;0.73;;;13.40;62.00;;;;;;4971848;28;20439;-46
2023/03/10 11:55:51;;;;;;;3.07;0.87;;;13.50;62.50;;;;;;4953765;28;21039;-47
2023/03/10 11:58:24;;;;;;;0.77;0.70;;;13.50;61.40;;;;;;4964123;28;20455;-47
2023/03/10 12:00:52;;;;;;;2.80;0.83;;;13.50;61.60;;;;;;4953936;28;21027;-46
2023/03/10 12:03:47;;;;;;;1.77;1.20;;;13.40;61.30;;;;;;4969576;28;20431;-48
2023/03/10 12:06:23;;;;;;;1.40;1.00;;;13.30;61.30;;;;;;4971454;28;20454;-51
2023/03/10 12:08:54;;;;;;;0.90;0.80;;;13.60;62.50;;;;;;4964740;28;20449;-50
2023/03/10 12:11:24;;;;;;;0.90;0.80;;;13.50;62.30;;;;;;4966612;28;20461;-49
2023/03/10 12:13:55;;;;;;;0.50;0.50;;;13.20;61.80;;;;;;4965411;28;20450;-50
2023/03/10 12:16:26;;;;;;;1.47;0.80;;;13.00;63.00;;;;;;4971459;28;20423;-52
2023/03/10 12:18:52;;;;;;;2.00;0.93;;;13.20;63.30;;;;;;4967086;28;20454;-49
2023/03/10 12:21:27;;;;;;;2.23;1.00;;;13.30;63.80;;;;;;4965344;28;20453;-50
2023/03/10 12:24:03;;;;;;;2.70;0.90;;;13.40;63.00;;;;;;4961992;28;21134;-51
2023/03/10 12:27:02;;;;;;;2.03;0.80;;;13.60;64.10;;;;;;4959471;28;20541;-48
2023/03/10 12:29:27;;;;;;;2.17;0.90;;;13.90;63.10;;;;;;4968230;28;20494;-49
2023/03/10 12:31:54;;;;;;;2.27;0.80;;;13.80;62.40;;;;;;4966638;28;20459;-51
2023/03/10 12:34:26;;;;;;;1.27;1.00;;;13.70;61.70;;;;;;4968564;28;20195;-49
2023/03/10 12:37:03;;;;;;;1.27;0.87;;;14.00;61.50;;;;;;4963601;28;20490;-52
2023/03/10 12:39:42;;;;;;;3.37;1.07;;;14.00;59.80;;;;;;4964733;28;20942;-51
2023/03/10 12:42:33;;;;;;;1.00;0.70;;;13.70;59.20;;;;;;4968286;28;20442;-49
2023/03/10 12:45:27;;;;;;;0.67;0.67;;;13.80;60.00;;;;;;4966435;28;20450;-48
2023/03/10 12:48:15;;;;;;;1.03;0.70;;;13.70;59.30;;;;;;4966391;28;20495;-51
2023/03/10 12:50:55;;;;;;;0.50;0.50;;;13.80;59.10;;;;;;4961201;28;20522;-47
2023/03/10 12:53:26;;;;;;;2.67;0.70;;;13.60;58.30;;;;;;4975053;28;21043;-50
2023/03/10 12:56:18;;;;;;;0.90;0.70;;;13.60;58.80;;;;;;4971046;28;20482;-51
2023/03/10 12:59:21;;;;;;;0.90;0.70;;;13.40;59.50;;;;;;4969303;28;20454;-49
2023/03/10 13:01:49;;;;;;;2.00;1.00;;;13.20;59.70;;;;;;4969601;28;20816;-48